Мир виртуальной авиации

Полеты на авиасимуляторах
...

Аэропорт LOWI

  METAR И TAF ИНФОРМАЦИЯ
METAR FOR LOWI
ADDS - METARS form results

(2340 UTC 28 January 2023)
Data provider http://aviationweather.gov/metar/data/
 
METAR text: LOWI 282320Z AUTO VRB01KT 9999 FEW016 BKN018 M01/M04 Q1026
Conditions at: LOWI (INNSBRUCK AIRPOR, AT) observed 2320 UTC 28 January 2023
Temperature: -1.0°C (30°F)
Dewpoint: -4.0°C (25°F) [RH = 80%]
Pressure (altimeter): 30.30 inches Hg (1026.0 mb)
Winds: variable direction winds at 1 MPH (1 knots; 0.5 m/s)
Visibility: 6 or more miles (10+ km)
Ceiling: 1800 feet AGL
Clouds: few clouds at 1600 feet AGL
broken clouds at 1800 feet AGL
Weather: no significant weather observed at this time

METAR text: LOWI 282250Z AUTO VRB02KT 9999 FEW015 SCT016 BKN048 M01/M03 Q1026
Conditions at: LOWI (INNSBRUCK AIRPOR, AT) observed 2250 UTC 28 January 2023
Temperature: -1.0°C (30°F)
Dewpoint: -3.0°C (27°F) [RH = 86%]
Pressure (altimeter): 30.30 inches Hg (1026.0 mb)
Winds: variable direction winds at 2 MPH (2 knots; 1.0 m/s)
Visibility: 6 or more miles (10+ km)
Ceiling: 4800 feet AGL
Clouds: few clouds at 1500 feet AGL
scattered clouds at 1600 feet AGL
broken clouds at 4800 feet AGL
Weather: no significant weather observed at this time

Forecast for: LOWI (INNSBRUCK AIRPOR, AT)
Text: TAF LOWI 282315Z 2900/2924 09003KT 9999 SCT015 BKN060 TX02/2914Z TNM05/2907Z
Forecast period: 0000 UTC 29 January 2023 to 0000 UTC 30 January 2023
Forecast type: FROM: standard forecast or significant change
Winds: from the E (90 degrees) at 3 MPH (3 knots; 1.5 m/s)
Visibility: 6 or more miles (10+ km)
Ceiling: 6000 feet AGL
Clouds: scattered clouds at 1500 feet AGL
broken clouds at 6000 feet AGL
Weather: no significant weather forecast for this period
Text: PROB40
Forecast period: 0000 to 1000 UTC 29 January 2023
Forecast type: TEMPORARY: The following changes expected for less than half the time period
Visibility: missing
Ceiling: 1000 feet AGL
Clouds: broken clouds at 1000 feet AGL
Weather: no significant weather forecast for this period

  КАРТА АЭРОПОРТ
  ИНФОРМАЦИЯ О ВПП
ВПП 08 Длина ВПП 6562 ft Ширина ВПП 148 ft
Высота ВПП 1906 ft Порог смещения ВПП 339 ft Курс ВПП 81
ВПП 26 Длина ВПП 6562 ft Ширина ВПП 148 ft
Высота ВПП 1893 ft Порог смещения ВПП 198 ft Курс ВПП 261
  ЧАСТОТА АЭРОПОРТА
Тип APP Название APP Частота 119.275 MHZ
Тип ATIS Название ATIS Частота 126.025 MHZ
Тип GND Crew Название Частота 121.8 MHZ
Тип GND Crew Название Частота 121.9 MHZ
Тип TWR Название TWR Частота 120.1 MHZ
  НАВИГАЦИОННЫЕ СРЕДСТВА AIDS
Тип NDB Название Innsbruck Частота 420 KHZ
Тип NDB Название Kuhtai Частота 413 KHZ